createdAt,value
2022-09-05T00:01:52.071Z,101100.84
2022-09-05T00:04:52.740Z,101090.16
2022-09-05T00:07:58.335Z,101087.63
2022-09-05T00:11:41.471Z,101093.91
2022-09-05T00:15:14.673Z,101074.38
2022-09-05T00:21:10.491Z,101064.72
2022-09-05T00:24:30.240Z,101065.66
2022-09-05T00:24:35.777Z,101072.78
2022-09-05T00:27:15.899Z,101063.09
2022-09-05T00:31:07.224Z,101061.38
2022-09-05T00:33:39.331Z,101057.03
2022-09-05T00:36:17.932Z,101045.53
2022-09-05T00:38:56.815Z,101036.66
2022-09-05T00:41:24.609Z,101045.59
2022-09-05T00:43:52.723Z,101042.94
2022-09-05T00:46:32.801Z,101039.34
2022-09-05T00:49:25.192Z,101043.81
2022-09-05T00:52:07.833Z,101033.25
2022-09-05T00:54:58.700Z,101033.34
2022-09-05T00:57:37.744Z,101020.91
2022-09-05T01:00:04.681Z,101030.06
2022-09-05T01:02:32.032Z,101032.63
2022-09-05T01:05:27.882Z,101032.75
2022-09-05T01:08:15.728Z,101026.56
2022-09-05T01:11:04.028Z,101028.34
2022-09-05T01:14:01.113Z,101026.56
2022-09-05T01:16:35.058Z,101024.84
2022-09-05T01:19:18.696Z,101024.94
2022-09-05T01:22:04.060Z,101018.66
2022-09-05T01:24:49.437Z,101020.38
2022-09-05T01:28:23.651Z,101020.47
2022-09-05T01:31:06.818Z,101003.63
2022-09-05T01:33:40.058Z,100999.25
2022-09-05T01:36:18.874Z,101001.19
2022-09-05T01:40:11.896Z,100994.13
2022-09-05T01:41:49.446Z,100989.66
2022-09-05T01:44:39.567Z,100980.94
2022-09-05T01:47:06.421Z,100986.28
2022-09-05T01:50:01.191Z,100980.09
2022-09-05T01:52:57.112Z,100971.97
2022-09-05T01:56:05.586Z,100989.03
2022-09-05T01:58:40.787Z,100991.69
2022-09-05T02:01:26.599Z,100996.19
2022-09-05T02:04:24.556Z,100997.88
2022-09-05T02:07:15.229Z,100998.84
2022-09-05T02:10:20.481Z,100998.84
2022-09-05T02:12:58.465Z,100982.97
2022-09-05T02:16:24.685Z,100989.13
2022-09-05T02:19:09.731Z,100994.47
2022-09-05T02:21:42.279Z,100990.94
2022-09-05T02:24:33.180Z,100978.59
2022-09-05T02:28:03.971Z,100979.56
2022-09-05T02:30:22.885Z,100977.84
2022-09-05T02:33:06.064Z,100973.38
2022-09-05T02:35:35.893Z,100968.91
2022-09-05T02:40:02.330Z,100959.19
2022-09-05T02:45:07.734Z,100950.34
2022-09-05T02:45:20.114Z,100941.63
2022-09-05T02:46:50.968Z,100927.56
2022-09-05T02:51:17.245Z,100928.63
2022-09-05T02:57:26.637Z,100927.78
2022-09-05T02:57:34.568Z,100928.63
2022-09-05T02:58:22.535Z,100938.34
2022-09-05T03:01:03.019Z,100925.97
2022-09-05T03:03:56.605Z,100941.94
2022-09-05T03:06:34.885Z,100936.63
2022-09-05T03:09:16.757Z,100925.97
2022-09-05T03:12:28.622Z,100933.97
2022-09-05T03:15:02.388Z,100930.44
2022-09-05T03:18:21.140Z,100935.03
2022-09-05T03:21:26.759Z,100936.72
2022-09-05T03:24:11.740Z,100940.34
2022-09-05T03:27:20.215Z,100934.16
2022-09-05T03:29:58.514Z,100937.69
2022-09-05T03:32:59.941Z,100932.44
2022-09-05T03:35:54.535Z,100928.97
2022-09-05T03:38:53.205Z,100921.91
2022-09-05T03:41:40.738Z,100922.03
2022-09-05T03:44:29.674Z,100914.78
2022-09-05T03:47:16.750Z,100925.53
2022-09-05T03:54:17.140Z,100912.22
2022-09-05T03:57:10.635Z,100905.09
2022-09-05T03:57:14.287Z,100905.09
2022-09-05T03:59:32.977Z,100920.19
2022-09-05T04:04:07.108Z,100904.22
2022-09-05T04:08:17.538Z,100928.31
2022-09-05T04:08:32.128Z,100923.72
2022-09-05T04:11:03.323Z,100919.38
2022-09-05T04:13:35.312Z,100935.34
2022-09-05T04:16:23.580Z,100932.69
2022-09-05T04:19:14.939Z,100937.16
2022-09-05T04:21:55.409Z,100934.59
2022-09-05T04:24:28.216Z,100932.78
2022-09-05T04:27:00.653Z,100941.63
2022-09-05T04:29:54.804Z,100944.28
2022-09-05T04:32:30.442Z,100945.25
2022-09-05T04:35:23.889Z,100942.56
2022-09-05T04:37:56.821Z,100951.41
2022-09-05T04:40:42.109Z,100953.03
2022-09-05T04:43:27.535Z,100951.09
2022-09-05T04:46:24.680Z,100952.81
2022-09-05T04:49:05.860Z,100949.28
2022-09-05T04:52:07.518Z,100958.13
2022-09-05T04:54:41.558Z,100963.47
2022-09-05T04:57:11.772Z,100959.00
2022-09-05T05:04:13.784Z,100957.19
2022-09-05T05:05:59.978Z,100966.00
2022-09-05T05:06:30.108Z,100968.59
2022-09-05T05:09:05.522Z,100975.63
2022-09-05T05:17:57.330Z,100973.78
2022-09-05T05:18:09.041Z,100978.16
2022-09-05T05:18:14.077Z,100975.38
2022-09-05T05:20:56.316Z,100976.91
2022-09-05T05:23:57.255Z,100971.34
2022-09-05T05:26:37.340Z,100965.81
2022-09-05T05:29:19.428Z,100967.50
2022-09-05T05:32:00.331Z,100961.09
2022-09-05T05:34:34.360Z,100980.41
2022-09-05T05:37:47.726Z,100990.00
2022-09-05T05:40:17.687Z,100988.19
2022-09-05T05:42:46.698Z,100989.88
2022-09-05T05:45:21.017Z,100987.97
2022-09-05T05:47:54.084Z,100990.50
2022-09-05T05:50:52.997Z,100995.75
2022-09-05T05:53:29.209Z,100988.59
2022-09-05T05:56:28.281Z,100990.31
2022-09-05T05:59:11.441Z,100998.09
2022-09-05T06:01:50.314Z,100996.28
2022-09-05T06:04:32.360Z,100997.22
2022-09-05T06:07:05.065Z,101001.59
2022-09-05T06:14:49.251Z,101005.09
2022-09-05T06:14:52.832Z,100999.88
2022-09-05T06:16:19.128Z,101003.28
2022-09-05T06:19:04.983Z,101004.16
2022-09-05T06:22:11.120Z,101012.06
2022-09-05T06:24:54.638Z,101024.41
2022-09-05T06:28:18.375Z,101018.22
2022-09-05T06:31:29.840Z,101013.75
2022-09-05T06:34:07.694Z,101012.88
2022-09-05T06:37:17.680Z,101022.59
2022-09-05T06:40:12.300Z,101022.94
2022-09-05T06:42:57.163Z,101028.47
2022-09-05T06:45:42.136Z,101030.16
2022-09-05T06:48:27.844Z,101031.88
2022-09-05T06:51:16.799Z,101035.47
2022-09-05T06:53:43.649Z,101045.31
2022-09-05T06:56:40.744Z,101047.97
2022-09-05T06:59:25.847Z,101055.13
2022-09-05T07:02:08.831Z,101064.91
2022-09-05T07:05:38.336Z,101062.38
2022-09-05T07:07:49.280Z,101066.84
2022-09-05T07:10:38.398Z,101065.13
2022-09-05T07:13:34.153Z,101066.94
2022-09-05T07:16:17.870Z,101074.19
2022-09-05T07:19:57.926Z,101062.66
2022-09-05T07:22:47.306Z,101056.47
2022-09-05T07:25:26.176Z,101058.31
2022-09-05T07:28:26.456Z,101060.00
2022-09-05T07:31:04.825Z,101048.47
2022-09-05T07:33:32.303Z,101035.28
2022-09-05T07:36:08.651Z,101037.09
2022-09-05T07:38:52.062Z,101015.91
2022-09-05T07:41:22.574Z,101032.63
2022-09-05T07:44:24.445Z,101039.75
2022-09-05T07:47:01.891Z,101047.75
2022-09-05T07:49:31.197Z,101047.75
2022-09-05T07:56:58.566Z,101046.81
2022-09-05T07:57:10.214Z,101046.81
2022-09-05T07:57:51.293Z,101044.13
2022-09-05T08:00:27.143Z,101047.53
2022-09-05T08:02:59.609Z,101044.88
2022-09-05T08:05:34.995Z,101062.66
2022-09-05T08:08:07.259Z,101078.56
2022-09-05T08:11:22.527Z,101081.31
2022-09-05T08:14:38.432Z,101092.84
2022-09-05T08:16:46.850Z,101092.84
2022-09-05T08:19:50.595Z,101098.03
2022-09-05T08:22:24.701Z,101096.25
2022-09-05T08:25:02.947Z,101095.19
2022-09-05T08:27:44.238Z,101094.34
2022-09-05T08:30:26.629Z,101089.97
2022-09-05T08:33:12.138Z,101093.28
2022-09-05T08:35:45.769Z,101092.31
2022-09-05T08:38:15.710Z,101099.22
2022-09-05T08:40:49.420Z,101098.28
2022-09-05T08:46:14.570Z,101095.81
2022-09-05T08:46:44.407Z,101087.63
2022-09-05T08:49:59.523Z,101083.78
2022-09-05T08:52:49.866Z,101075.78
2022-09-05T08:55:34.644Z,101082.75
2022-09-05T08:58:05.197Z,101090.66
2022-09-05T09:01:15.804Z,101098.63
2022-09-05T09:04:26.737Z,101096.50
2022-09-05T09:07:51.166Z,101092.78
2022-09-05T09:10:55.931Z,101083.69
2022-09-05T09:13:43.687Z,101083.63
2022-09-05T09:16:36.130Z,101086.03
2022-09-05T09:19:06.002Z,101093.09
2022-09-05T09:21:56.685Z,101108.22
2022-09-05T09:24:40.979Z,101110.03
2022-09-05T09:27:27.273Z,101111.00
2022-09-05T09:30:07.357Z,101104.09
2022-09-05T09:32:55.288Z,101107.59
2022-09-05T09:35:25.905Z,101105.88
2022-09-05T09:38:20.531Z,101112.94
2022-09-05T09:41:22.061Z,101113.03
2022-09-05T09:44:29.566Z,101105.97
2022-09-05T09:46:57.344Z,101102.56
2022-09-05T09:49:42.796Z,101099.91
2022-09-05T09:52:21.246Z,101091.06
2022-09-05T09:55:21.455Z,101097.16
2022-09-05T09:58:42.902Z,101095.44
2022-09-05T10:01:35.920Z,101095.44
2022-09-05T10:10:38.917Z,101104.16
2022-09-05T10:10:54.223Z,101109.63
2022-09-05T10:11:40.179Z,101109.63
2022-09-05T10:14:07.615Z,101112.28
2022-09-05T10:17:28.411Z,101106.97
2022-09-05T10:20:24.980Z,101117.63
2022-09-05T10:23:13.084Z,101115.69
2022-09-05T10:25:58.268Z,101110.88
2022-09-05T10:29:11.775Z,101109.81
2022-09-05T10:35:15.320Z,101110.34
2022-09-05T10:35:22.714Z,101119.53
2022-09-05T10:37:45.725Z,101111.94
2022-09-05T10:40:17.529Z,101117.28
2022-09-05T10:43:00.177Z,101111.00
2022-09-05T10:45:50.019Z,101119.00
2022-09-05T10:48:28.331Z,101122.31
2022-09-05T10:51:27.816Z,101126.78
2022-09-05T10:53:58.987Z,101119.53
2022-09-05T10:57:04.554Z,101129.97
2022-09-05T11:02:23.327Z,101123.78
2022-09-05T11:02:57.810Z,101120.78
2022-09-05T11:05:35.174Z,101117.69
2022-09-05T11:08:11.900Z,101117.25
2022-09-05T11:11:34.033Z,101123.00
2022-09-05T11:14:26.694Z,101122.56
2022-09-05T11:17:05.580Z,101128.53
2022-09-05T11:19:40.359Z,101133.44
2022-09-05T11:22:22.962Z,101133.31
2022-09-05T11:25:02.385Z,101126.06
2022-09-05T11:27:50.937Z,101124.97
2022-09-05T11:30:29.992Z,101122.22
2022-09-05T11:39:53.971Z,101122.94
2022-09-05T11:40:07.749Z,101118.28
2022-09-05T11:40:28.844Z,101117.22
2022-09-05T11:43:09.825Z,101121.47
2022-09-05T11:45:42.743Z,101121.25
2022-09-05T11:48:13.217Z,101130.94
2022-09-05T11:51:01.480Z,101132.66
2022-09-05T11:53:53.511Z,101136.06
2022-09-05T11:57:11.393Z,101131.59
2022-09-05T12:00:32.660Z,101130.94
2022-09-05T12:03:57.546Z,101135.97
2022-09-05T12:06:47.967Z,101137.22
2022-09-05T12:09:44.759Z,101132.81
2022-09-05T12:12:38.713Z,101121.28
2022-09-05T12:15:22.734Z,101121.06
2022-09-05T12:17:53.487Z,101116.72
2022-09-05T12:20:25.909Z,101117.56
2022-09-05T12:23:24.902Z,101112.09
2022-09-05T12:27:38.930Z,101111.25
2022-09-05T12:29:36.365Z,101107.63
2022-09-05T12:33:36.611Z,101108.34
2022-09-05T12:36:10.518Z,101110.06
2022-09-05T12:40:54.319Z,101108.22
2022-09-05T12:41:35.259Z,101109.09
2022-09-05T12:44:40.227Z,101098.41
2022-09-05T12:47:19.220Z,101091.38
2022-09-05T12:50:14.070Z,101098.53
2022-09-05T12:52:52.291Z,101097.53
2022-09-05T12:55:32.732Z,101094.78
2022-09-05T13:03:03.321Z,101092.97
2022-09-05T13:03:04.085Z,101100.75
2022-09-05T13:04:37.678Z,101098.91
2022-09-05T13:07:39.306Z,101097.09
2022-09-05T13:13:48.581Z,101095.41
2022-09-05T13:14:56.436Z,101095.63
2022-09-05T13:16:32.210Z,101092.22
2022-09-05T13:19:08.679Z,101096.59
2022-09-05T13:21:41.466Z,101090.31
2022-09-05T13:24:17.702Z,101090.53
2022-09-05T13:27:09.047Z,101087.72
2022-09-05T13:30:26.149Z,101074.28
2022-09-05T13:38:06.610Z,101078.63
2022-09-05T13:38:13.809Z,101080.22
2022-09-05T13:38:47.518Z,101084.59
2022-09-05T13:41:27.779Z,101066.03
2022-09-05T13:44:00.354Z,101069.75
2022-09-05T13:47:29.465Z,101066.34
2022-09-05T13:50:44.061Z,101056.41
2022-09-05T13:53:16.755Z,101044.78
2022-09-05T13:55:49.195Z,101042.22
2022-09-05T13:58:32.721Z,101039.44
2022-09-05T14:01:39.591Z,101036.91
2022-09-05T14:05:14.907Z,101037.97
2022-09-05T14:08:01.196Z,101046.09
2022-09-05T14:11:02.532Z,101045.34
2022-09-05T14:13:40.287Z,101039.06
2022-09-05T14:16:16.651Z,101027.63
2022-09-05T14:19:13.664Z,101032.88
2022-09-05T14:21:42.353Z,101026.44
2022-09-05T14:24:27.322Z,101033.47
2022-09-05T14:26:57.741Z,101033.38
2022-09-05T14:29:39.342Z,101034.09
2022-09-05T14:35:30.969Z,101037.72
2022-09-05T14:37:45.936Z,101031.56
2022-09-05T14:38:42.506Z,101025.34
2022-09-05T14:41:30.810Z,101026.22
2022-09-05T14:44:12.563Z,101025.44
2022-09-05T14:47:35.247Z,101017.44
2022-09-05T14:50:27.854Z,101020.47
2022-09-05T14:57:18.999Z,101022.06
2022-09-05T15:02:44.409Z,101028.25
2022-09-05T15:02:50.347Z,101026.44
2022-09-05T15:04:55.845Z,101028.38
2022-09-05T15:07:27.243Z,101024.13
2022-09-05T15:12:19.890Z,101017.28
2022-09-05T15:13:06.051Z,101023.50
2022-09-05T15:15:42.464Z,101025.19
2022-09-05T15:18:18.621Z,101028.84
2022-09-05T15:20:48.627Z,101028.09
2022-09-05T15:23:18.825Z,101029.28
2022-09-05T15:26:07.852Z,101034.63
2022-09-05T15:28:45.805Z,101026.50
2022-09-05T15:31:24.820Z,101029.28
2022-09-05T15:33:54.134Z,101039.22
2022-09-05T15:36:33.325Z,101047.97
2022-09-05T15:39:08.300Z,101049.78
2022-09-05T15:41:43.285Z,101054.25
2022-09-05T15:44:15.204Z,101059.59
2022-09-05T15:46:57.614Z,101050.84
2022-09-05T15:49:24.599Z,101043.84
2022-09-05T15:52:14.736Z,101047.47
2022-09-05T15:55:21.747Z,101037.75
2022-09-05T15:58:03.379Z,101042.00
2022-09-05T16:00:33.098Z,101039.31
2022-09-05T16:05:19.585Z,101042.75
2022-09-05T16:10:27.713Z,101036.56
2022-09-05T16:10:49.817Z,101035.56
2022-09-05T16:12:10.812Z,101031.94
2022-09-05T16:16:10.060Z,101032.69
2022-09-05T16:23:16.096Z,101037.19
2022-09-05T16:23:25.665Z,101034.63
2022-09-05T16:23:40.690Z,101037.19
2022-09-05T16:26:25.272Z,101034.63
2022-09-05T16:29:01.219Z,101024.16
2022-09-05T16:31:43.939Z,101020.53
2022-09-05T16:34:24.942Z,101018.81
2022-09-05T16:37:08.507Z,101014.34
2022-09-05T16:39:40.347Z,101020.63
2022-09-05T16:42:47.521Z,101022.22
2022-09-05T16:45:28.579Z,101016.16
2022-09-05T16:48:07.886Z,101012.63
2022-09-05T16:50:50.332Z,101009.97
2022-09-05T16:53:59.198Z,101010.94
2022-09-05T16:56:45.947Z,101012.63
2022-09-05T16:59:12.866Z,101017.97
2022-09-05T17:02:10.404Z,101013.50
2022-09-05T17:05:04.127Z,101011.69
2022-09-05T17:08:06.411Z,101014.34
2022-09-05T17:10:57.464Z,101015.19
2022-09-05T17:13:31.800Z,101010.81
2022-09-05T17:16:01.819Z,101001.94
2022-09-05T17:18:35.069Z,100999.19
2022-09-05T17:21:08.359Z,101001.00
2022-09-05T17:29:17.266Z,100986.78
2022-09-05T17:29:24.594Z,100993.94
2022-09-05T17:32:48.598Z,100994.81
2022-09-05T17:35:23.311Z,101000.63
2022-09-05T17:37:50.719Z,100994.72
2022-09-05T17:40:39.122Z,100997.50
2022-09-05T17:43:28.355Z,100994.00
2022-09-05T17:46:14.424Z,100992.03
2022-09-05T17:49:08.657Z,100982.16
2022-09-05T17:51:51.503Z,100990.25
2022-09-05T17:54:33.923Z,100989.38
2022-09-05T17:57:28.296Z,100985.03
2022-09-05T17:59:57.908Z,100979.78
2022-09-05T18:02:26.917Z,100982.59
2022-09-05T18:04:56.332Z,100982.59
2022-09-05T18:07:27.138Z,100976.38
2022-09-05T18:10:14.871Z,100986.22
2022-09-05T18:13:31.934Z,100980.28
2022-09-05T18:16:00.462Z,100980.59
2022-09-05T18:19:28.266Z,100982.31
2022-09-05T18:21:42.611Z,100976.75
2022-09-05T18:24:24.313Z,100987.41
2022-09-05T18:27:11.411Z,100990.81
2022-09-05T18:29:58.233Z,100993.47
2022-09-05T18:33:53.418Z,100985.59
2022-09-05T18:36:19.532Z,100979.41
2022-09-05T18:39:29.483Z,100998.09
2022-09-05T18:42:18.093Z,101001.63
2022-09-05T18:44:51.387Z,101002.44
2022-09-05T18:47:34.178Z,101012.16
2022-09-05T18:50:24.718Z,101018.34
2022-09-05T18:53:10.020Z,101009.38
2022-09-05T18:56:13.086Z,101012.88
2022-09-05T18:59:14.741Z,101013.97
2022-09-05T19:02:00.114Z,101014.81
2022-09-05T19:04:46.228Z,101016.53
2022-09-05T19:07:39.468Z,101021.03
2022-09-05T19:10:34.397Z,101016.53
2022-09-05T19:13:31.779Z,101006.69
2022-09-05T19:16:43.267Z,101006.59
2022-09-05T19:19:29.281Z,101013.66
2022-09-05T19:22:37.328Z,101013.41
2022-09-05T19:24:52.004Z,101002.72
2022-09-05T19:28:47.191Z,100999.22
2022-09-05T19:37:02.457Z,101021.00
2022-09-05T19:37:03.611Z,101011.41
2022-09-05T19:37:14.797Z,101012.25
2022-09-05T19:43:31.084Z,101022.56
2022-09-05T19:47:26.914Z,101017.97
2022-09-05T19:47:51.103Z,101019.56
2022-09-05T19:48:04.023Z,101012.31
2022-09-05T19:50:34.864Z,101005.16
2022-09-05T19:53:09.102Z,101002.34
2022-09-05T19:55:39.311Z,100997.03
2022-09-05T19:58:18.933Z,101005.53
2022-09-05T20:01:00.770Z,101004.69
2022-09-05T20:03:38.439Z,101003.72
2022-09-05T20:06:30.792Z,101002.63
2022-09-05T20:09:19.239Z,101002.63
2022-09-05T20:11:58.599Z,101008.69
2022-09-05T20:14:37.406Z,101019.38
2022-09-05T20:17:23.907Z,101010.50
2022-09-05T20:20:16.518Z,101013.31
2022-09-05T20:22:50.815Z,101015.13
2022-09-05T20:25:40.868Z,101018.66
2022-09-05T20:28:11.909Z,101015.97
2022-09-05T20:30:45.409Z,101014.16
2022-09-05T20:33:31.028Z,101013.19
2022-09-05T20:43:12.404Z,101021.31
2022-09-05T20:43:22.634Z,101021.56
2022-09-05T20:43:30.427Z,101025.94
2022-09-05T20:44:53.519Z,101017.28
2022-09-05T20:54:13.325Z,101028.84
2022-09-05T20:54:17.851Z,101026.38
2022-09-05T20:54:23.201Z,101031.84
2022-09-05T20:56:31.420Z,101025.66
2022-09-05T20:58:59.836Z,101025.66
2022-09-05T21:01:33.139Z,101026.59
2022-09-05T21:04:07.890Z,101024.81
2022-09-05T21:06:37.273Z,101018.59
2022-09-05T21:09:28.661Z,101021.28
2022-09-05T21:12:03.489Z,101007.94
2022-09-05T21:14:31.666Z,101016.78
2022-09-05T21:17:15.932Z,101013.25
2022-09-05T21:19:53.173Z,101012.41
2022-09-05T21:22:21.975Z,101020.63
2022-09-05T21:25:08.561Z,101028.91
2022-09-05T21:28:05.469Z,101037.00
2022-09-05T21:30:34.606Z,101031.03
2022-09-05T21:33:15.999Z,101040.88
2022-09-05T21:35:51.345Z,101037.34
2022-09-05T21:38:32.324Z,101037.41
2022-09-05T21:41:04.190Z,101033.06
2022-09-05T21:47:43.874Z,101036.91
2022-09-05T21:47:44.822Z,101031.78
2022-09-05T21:49:10.271Z,101033.63
2022-09-05T21:51:40.144Z,101034.59
2022-09-05T21:59:13.263Z,101029.38
2022-09-05T21:59:26.885Z,101027.66
2022-09-05T21:59:59.538Z,101020.59
2022-09-05T22:02:34.960Z,101015.28
2022-09-05T22:05:03.669Z,101014.53
2022-09-05T22:07:35.953Z,101013.81
2022-09-05T22:10:04.960Z,101005.06
2022-09-05T22:12:39.574Z,101014.03
2022-09-05T22:15:27.673Z,101014.88
2022-09-05T22:18:02.565Z,101012.31
2022-09-05T22:20:46.553Z,101006.16
2022-09-05T22:23:25.815Z,101004.44
2022-09-05T22:25:53.404Z,101007.22
2022-09-05T22:28:31.842Z,100997.50
2022-09-05T22:31:07.317Z,100991.44
2022-09-05T22:33:35.393Z,100986.13
2022-09-05T22:36:02.606Z,100981.59
2022-09-05T22:38:30.277Z,100977.34
2022-09-05T22:40:57.961Z,100981.84
2022-09-05T22:43:25.333Z,100979.19
2022-09-05T22:45:56.563Z,100981.00
2022-09-05T22:48:24.505Z,100979.28
2022-09-05T22:50:52.423Z,100980.13
2022-09-05T22:53:19.387Z,100975.75
2022-09-05T22:55:46.407Z,100966.06
2022-09-05T22:58:14.833Z,100958.94
2022-09-05T23:00:42.077Z,100957.22
2022-09-05T23:03:09.157Z,100965.22
2022-09-05T23:05:36.065Z,100954.63
2022-09-05T23:08:04.921Z,100962.63
2022-09-05T23:10:32.297Z,100963.63
2022-09-05T23:13:02.942Z,100965.44
2022-09-05T23:15:29.818Z,100964.56
2022-09-05T23:17:59.076Z,100969.06
2022-09-05T23:20:28.201Z,100967.38
2022-09-05T23:22:55.653Z,100965.56
2022-09-05T23:25:24.037Z,100972.56
2022-09-05T23:27:51.307Z,100970.78
2022-09-05T23:30:18.827Z,100966.38
2022-09-05T23:32:51.061Z,100966.50
2022-09-05T23:35:19.366Z,100971.97
2022-09-05T23:37:47.520Z,100970.13
2022-09-05T23:40:17.134Z,100957.06
2022-09-05T23:42:57.805Z,100956.19
2022-09-05T23:45:25.770Z,100952.66
2022-09-05T23:47:53.273Z,100950.09
2022-09-05T23:50:21.231Z,100952.75
2022-09-05T23:52:49.169Z,100950.09
2022-09-05T23:55:18.711Z,100947.69
2022-09-05T23:57:46.290Z,100936.88
